Terminal Aerodrome Forecast
Issued by NWS

Home | Current Version | Previous Version | Text Only | Print | Product List | Glossary On
Versions: 1 2 3 4 5 6 7 8 9 10 11 12 13 14 15 16 17 18 19
000
FTUS41 KALY 261700
TAFPSF
TAF
KPSF 261725Z 2618/2718 34005KT 1/2SM SN FZFG VV005
      TEMPO 2618/2622 1/4SM +SN FZFG VV002
     FM262200 01008G14KT 1/2SM SN FG VV003
     FM270300 33012G18KT 1 1/2SM -SN BR OVC006
     FM270700 31010G15KT 3SM -SN BR OVC010
     FM271000 30006KT P6SM VCSH OVC025=

USA.gov is the U.S. government's official web portal to all federal, state and local government web resources and services.